Time,TemperatureF,DewpointF,PressureIn,WindDirection,WindDirectionDegrees,WindSpeedMPH,WindSpeedGustMPH,Humidity,HourlyPrecipIn,Conditions,Clouds,dailyrainin,SoftwareType,DateUTC
2013-03-06 00:00:00,41.5,40.4,29.54,ENE,66,0.0,0.0,96,0.00,,,0.47,LWC V2.00 B2112,2013-03-06 05:00:00,
2013-03-06 00:05:00,41.3,40.5,29.53,ENE,66,0.0,0.0,97,0.00,,,0.47,LWC V2.00 B2112,2013-03-06 05:05:00,
2013-03-06 00:10:00,41.5,40.7,29.53,ENE,66,0.0,0.0,97,0.00,,,0.47,LWC V2.00 B2112,2013-03-06 05:10:00,
2013-03-06 00:15:00,41.5,40.7,29.53,ENE,66,0.0,0.0,97,0.00,,,0.47,LWC V2.00 B2112,2013-03-06 05:15:00,
2013-03-06 00:20:00,41.6,40.8,29.51,ENE,66,0.0,1.0,97,0.00,,,0.47,LWC V2.00 B2112,2013-03-06 05:20:00,
2013-03-06 00:25:00,41.6,40.8,29.51,ENE,66,0.0,0.0,97,0.00,,,0.47,LWC V2.00 B2112,2013-03-06 05:25:00,
2013-03-06 00:30:00,41.6,40.8,29.51,ENE,66,0.0,0.0,97,0.00,,,0.47,LWC V2.00 B2112,2013-03-06 05:30:00,
2013-03-06 00:35:00,41.6,40.8,29.49,ENE,66,0.0,1.0,97,0.00,,,0.47,LWC V2.00 B2112,2013-03-06 05:35:00,
2013-03-06 00:40:00,41.6,40.8,29.49,ENE,66,0.0,0.0,97,0.00,,,0.47,LWC V2.00 B2112,2013-03-06 05:40:00,
2013-03-06 00:45:00,41.6,40.8,29.49,ENE,66,0.0,0.0,97,0.00,,,0.47,LWC V2.00 B2112,2013-03-06 05:45:00,
2013-03-06 00:50:00,41.8,41.0,29.49,ENE,66,0.0,0.0,97,0.00,,,0.47,LWC V2.00 B2112,2013-03-06 05:50:00,
2013-03-06 00:55:00,41.8,41.0,29.49,ENE,66,0.0,0.0,97,0.00,,,0.47,LWC V2.00 B2112,2013-03-06 05:55:00,
2013-03-06 01:00:00,41.8,41.0,29.49,ENE,66,0.0,0.0,97,0.00,,,0.47,LWC V2.00 B2112,2013-03-06 06:00:00,
2013-03-06 01:05:00,41.9,41.1,29.48,ENE,66,0.0,0.0,97,0.00,,,0.47,LWC V2.00 B2112,2013-03-06 06:05:00,
2013-03-06 01:10:00,41.9,41.1,29.48,ENE,66,0.0,0.0,97,0.00,,,0.47,LWC V2.00 B2112,2013-03-06 06:10:00,
2013-03-06 01:15:00,41.9,41.1,29.48,ENE,66,0.0,0.0,97,0.00,,,0.47,LWC V2.00 B2112,2013-03-06 06:15:00,
2013-03-06 01:20:00,41.9,41.4,29.47,ENE,66,0.0,0.0,98,0.00,,,0.47,LWC V2.00 B2112,2013-03-06 06:20:00,
2013-03-06 01:25:00,41.9,41.1,29.47,ENE,66,0.0,0.0,97,0.00,,,0.47,LWC V2.00 B2112,2013-03-06 06:25:00,
2013-03-06 01:30:00,41.9,41.1,29.47,ENE,66,0.0,0.0,97,0.00,,,0.47,LWC V2.00 B2112,2013-03-06 06:30:00,
2013-03-06 01:35:00,41.9,41.4,29.46,ENE,66,0.0,0.0,98,0.00,,,0.47,LWC V2.00 B2112,2013-03-06 06:35:00,
2013-03-06 01:40:00,42.1,41.6,29.46,ENE,66,0.0,0.0,98,0.00,,,0.47,LWC V2.00 B2112,2013-03-06 06:40:00,
2013-03-06 01:45:00,42.1,41.6,29.46,ENE,66,0.0,0.0,98,0.00,,,0.47,LWC V2.00 B2112,2013-03-06 06:45:00,
2013-03-06 01:50:00,42.2,41.7,29.45,ENE,66,0.0,1.0,98,0.00,,,0.48,LWC V2.00 B2112,2013-03-06 06:50:00,
2013-03-06 01:55:00,42.3,41.8,29.45,ENE,66,0.0,0.0,98,0.00,,,0.48,LWC V2.00 B2112,2013-03-06 06:55:00,
2013-03-06 02:00:00,42.5,42.0,29.45,ENE,66,0.0,1.0,98,0.00,,,0.48,LWC V2.00 B2112,2013-03-06 07:00:00,
2013-03-06 02:05:00,42.8,42.3,29.45,NW,320,1.0,1.0,98,0.00,,,0.48,LWC V2.00 B2112,2013-03-06 07:05:00,
2013-03-06 02:10:00,42.8,42.3,29.45,NW,320,0.0,0.0,98,0.00,,,0.48,LWC V2.00 B2112,2013-03-06 07:10:00,
2013-03-06 02:15:00,42.9,42.4,29.45,NW,320,0.0,0.0,98,0.00,,,0.48,LWC V2.00 B2112,2013-03-06 07:15:00,
2013-03-06 02:20:00,42.9,42.4,29.45,NW,320,0.0,0.0,98,0.00,,,0.48,LWC V2.00 B2112,2013-03-06 07:20:00,
2013-03-06 02:25:00,42.9,42.4,29.45,NW,320,0.0,0.0,98,0.00,,,0.48,LWC V2.00 B2112,2013-03-06 07:25:00,
2013-03-06 02:30:00,42.9,42.4,29.45,NW,320,0.0,0.0,98,0.00,,,0.48,LWC V2.00 B2112,2013-03-06 07:30:00,
2013-03-06 02:35:00,42.9,42.4,29.44,NW,320,0.0,0.0,98,0.00,,,0.48,LWC V2.00 B2112,2013-03-06 07:35:00,
2013-03-06 02:40:00,42.9,42.4,29.44,NW,320,0.0,1.0,98,0.00,,,0.48,LWC V2.00 B2112,2013-03-06 07:40:00,
2013-03-06 02:45:00,42.9,42.4,29.44,WNW,287,2.0,3.0,98,0.00,,,0.48,LWC V2.00 B2112,2013-03-06 07:45:00,
2013-03-06 02:50:00,42.6,42.1,29.46,NW,311,0.0,1.0,98,0.00,,,0.48,LWC V2.00 B2112,2013-03-06 07:50:00,
2013-03-06 02:55:00,42.1,41.3,29.46,West,263,1.0,1.0,97,0.00,,,0.48,LWC V2.00 B2112,2013-03-06 07:55:00,
2013-03-06 03:00:00,41.5,40.7,29.46,West,266,3.0,3.0,97,0.00,,,0.48,LWC V2.00 B2112,2013-03-06 08:00:00,
2013-03-06 03:05:00,40.9,40.1,29.46,East,98,0.0,6.0,97,0.00,,,0.48,LWC V2.00 B2112,2013-03-06 08:05:00,
2013-03-06 03:10:00,40.6,39.8,29.46,NE,42,0.0,3.0,97,0.00,,,0.48,LWC V2.00 B2112,2013-03-06 08:10:00,
2013-03-06 03:15:00,40.3,39.5,29.46,ENE,61,0.0,1.0,97,0.00,,,0.48,LWC V2.00 B2112,2013-03-06 08:15:00,
2013-03-06 03:20:00,40.2,39.4,29.46,ENE,61,0.0,0.0,97,0.00,,,0.48,LWC V2.00 B2112,2013-03-06 08:20:00,
2013-03-06 03:25:00,40.1,39.3,29.46,WNW,288,1.0,1.0,97,0.00,,,0.48,LWC V2.00 B2112,2013-03-06 08:25:00,
2013-03-06 03:30:00,39.9,39.1,29.46,WNW,288,0.0,0.0,97,0.00,,,0.48,LWC V2.00 B2112,2013-03-06 08:30:00,
2013-03-06 03:35:00,39.8,39.0,29.47,WNW,288,0.0,0.0,97,0.00,,,0.48,LWC V2.00 B2112,2013-03-06 08:35:00,
2013-03-06 03:40:00,39.5,38.7,29.47,WNW,286,0.0,0.0,97,0.00,,,0.48,LWC V2.00 B2112,2013-03-06 08:40:00,
2013-03-06 03:45:00,39.3,38.5,29.47,WNW,291,0.0,0.0,97,0.00,,,0.48,LWC V2.00 B2112,2013-03-06 08:45:00,
2013-03-06 03:50:00,39.3,38.5,29.48,West,276,0.0,0.0,97,0.00,,,0.48,LWC V2.00 B2112,2013-03-06 08:50:00,
2013-03-06 03:55:00,39.2,38.4,29.48,West,276,0.0,0.0,97,0.00,,,0.48,LWC V2.00 B2112,2013-03-06 08:55:00,
2013-03-06 04:00:00,39.1,38.3,29.48,NNW,339,0.0,1.0,97,0.00,,,0.48,LWC V2.00 B2112,2013-03-06 09:00:00,
2013-03-06 04:05:00,39.1,38.3,29.49,NNW,338,0.0,0.0,97,0.00,,,0.48,LWC V2.00 B2112,2013-03-06 09:05:00,
2013-03-06 04:10:00,38.9,38.1,29.49,NNW,338,0.0,1.0,97,0.00,,,0.48,LWC V2.00 B2112,2013-03-06 09:10:00,
2013-03-06 04:15:00,38.9,38.1,29.49,NW,318,0.0,1.0,97,0.00,,,0.48,LWC V2.00 B2112,2013-03-06 09:15:00,
2013-03-06 04:20:00,38.8,38.0,29.48,West,277,0.0,0.0,97,0.00,,,0.48,LWC V2.00 B2112,2013-03-06 09:20:00,
2013-03-06 04:25:00,38.6,37.8,29.48,West,277,0.0,1.0,97,0.00,,,0.48,LWC V2.00 B2112,2013-03-06 09:25:00,
2013-03-06 04:30:00,38.6,37.8,29.48,West,277,0.0,0.0,97,0.00,,,0.48,LWC V2.00 B2112,2013-03-06 09:30:00,
2013-03-06 04:35:00,38.5,37.7,29.49,North,5,0.0,1.0,97,0.00,,,0.48,LWC V2.00 B2112,2013-03-06 09:35:00,
2013-03-06 04:40:00,38.3,37.3,29.49,West,272,0.0,2.0,96,0.00,,,0.48,LWC V2.00 B2112,2013-03-06 09:40:00,
2013-03-06 04:45:00,38.3,37.3,29.49,West,272,0.0,2.0,96,0.00,,,0.48,LWC V2.00 B2112,2013-03-06 09:45:00,
2013-03-06 04:50:00,38.2,37.2,29.49,WNW,303,0.0,1.0,96,0.00,,,0.48,LWC V2.00 B2112,2013-03-06 09:50:00,
2013-03-06 04:55:00,38.2,37.2,29.49,WNW,284,0.0,0.0,96,0.00,,,0.48,LWC V2.00 B2112,2013-03-06 09:55:00,
2013-03-06 05:00:00,38.2,37.2,29.49,WNW,284,0.0,0.0,96,0.00,,,0.48,LWC V2.00 B2112,2013-03-06 10:00:00,
2013-03-06 05:05:00,38.2,37.2,29.50,NNE,17,0.0,1.0,96,0.00,,,0.48,LWC V2.00 B2112,2013-03-06 10:05:00,
2013-03-06 05:10:00,38.0,37.0,29.50,West,264,0.0,1.0,96,0.00,,,0.48,LWC V2.00 B2112,2013-03-06 10:10:00,
2013-03-06 05:15:00,38.0,37.0,29.50,WNW,298,1.0,1.0,96,0.00,,,0.48,LWC V2.00 B2112,2013-03-06 10:15:00,
2013-03-06 05:20:00,38.0,37.0,29.51,WNW,298,0.0,0.0,96,0.00,,,0.48,LWC V2.00 B2112,2013-03-06 10:20:00,
2013-03-06 05:25:00,38.0,37.0,29.51,WNW,298,0.0,1.0,96,0.00,,,0.48,LWC V2.00 B2112,2013-03-06 10:25:00,
2013-03-06 05:30:00,38.0,36.7,29.51,West,259,1.0,1.0,95,0.00,,,0.48,LWC V2.00 B2112,2013-03-06 10:30:00,
2013-03-06 05:35:00,37.6,36.3,29.51,West,263,1.0,1.0,95,0.00,,,0.48,LWC V2.00 B2112,2013-03-06 10:35:00,
2013-03-06 05:40:00,37.3,35.7,29.51,WSW,237,0.0,2.0,94,0.00,,,0.48,LWC V2.00 B2112,2013-03-06 10:40:00,
2013-03-06 05:45:00,37.0,35.2,29.51,SSW,202,4.0,5.0,93,0.00,,,0.48,LWC V2.00 B2112,2013-03-06 10:45:00,
2013-03-06 05:50:00,36.8,34.7,29.51,WSW,253,6.0,7.0,92,0.00,,,0.48,LWC V2.00 B2112,2013-03-06 10:50:00,
2013-03-06 05:55:00,36.5,34.4,29.51,West,264,0.0,1.0,92,0.00,,,0.48,LWC V2.00 B2112,2013-03-06 10:55:00,
2013-03-06 06:00:00,36.3,34.2,29.51,WSW,244,0.0,1.0,92,0.00,,,0.48,LWC V2.00 B2112,2013-03-06 11:00:00,
2013-03-06 06:05:00,36.2,34.1,29.52,West,263,0.0,1.0,92,0.00,,,0.48,LWC V2.00 B2112,2013-03-06 11:05:00,
2013-03-06 06:10:00,36.2,34.1,29.52,NNW,333,0.0,2.0,92,0.00,,,0.48,LWC V2.00 B2112,2013-03-06 11:10:00,
2013-03-06 06:15:00,36.2,34.1,29.52,NW,322,0.0,1.0,92,0.00,,,0.48,LWC V2.00 B2112,2013-03-06 11:15:00,
2013-03-06 06:20:00,36.2,34.1,29.53,WNW,292,1.0,2.0,92,0.00,,,0.48,LWC V2.00 B2112,2013-03-06 11:20:00,
2013-03-06 06:25:00,36.0,33.9,29.53,WNW,283,0.0,2.0,92,0.00,,,0.48,LWC V2.00 B2112,2013-03-06 11:25:00,
2013-03-06 06:30:00,36.0,33.9,29.53,WNW,303,0.0,1.0,92,0.00,,,0.48,LWC V2.00 B2112,2013-03-06 11:30:00,
2013-03-06 06:35:00,36.2,34.1,29.54,WNW,303,0.0,0.0,92,0.00,,,0.48,LWC V2.00 B2112,2013-03-06 11:35:00,
2013-03-06 06:40:00,36.2,34.1,29.54,NNW,339,0.0,0.0,92,0.00,,,0.48,LWC V2.00 B2112,2013-03-06 11:40:00,
2013-03-06 06:45:00,36.3,34.2,29.54,North,0,0.0,1.0,92,0.00,,,0.48,LWC V2.00 B2112,2013-03-06 11:45:00,
2013-03-06 06:50:00,36.3,34.2,29.54,North,0,0.0,1.0,92,0.00,,,0.00,LWC V2.00 B2112,2013-03-06 11:50:00,
2013-03-06 06:55:00,36.3,34.2,29.54,North,0,0.0,0.0,92,0.00,,,0.00,LWC V2.00 B2112,2013-03-06 11:55:00,
2013-03-06 07:00:00,36.3,34.2,29.54,ENE,57,0.0,0.0,92,0.00,,,0.00,LWC V2.00 B2112,2013-03-06 12:00:00,
2013-03-06 07:05:00,36.2,34.1,29.54,WNW,283,0.0,1.0,92,0.00,,,0.00,LWC V2.00 B2112,2013-03-06 12:05:00,
2013-03-06 07:10:00,36.2,33.8,29.54,North,0,0.0,1.0,91,0.00,,,0.00,LWC V2.00 B2112,2013-03-06 12:10:00,
2013-03-06 07:15:00,36.3,33.9,29.54,WNW,286,0.0,2.0,91,0.00,,,0.00,LWC V2.00 B2112,2013-03-06 12:15:00,
2013-03-06 07:20:00,36.3,33.9,29.55,WNW,286,0.0,0.0,91,0.00,,,0.00,LWC V2.00 B2112,2013-03-06 12:20:00,
2013-03-06 07:25:00,36.5,33.9,29.55,West,268,0.0,0.0,90,0.00,,,0.00,LWC V2.00 B2112,2013-03-06 12:25:00,
2013-03-06 07:30:00,36.6,34.2,29.55,West,268,0.0,0.0,91,0.00,,,0.00,LWC V2.00 B2112,2013-03-06 12:30:00,
2013-03-06 07:35:00,36.9,34.5,29.56,East,84,0.0,2.0,91,0.00,,,0.00,LWC V2.00 B2112,2013-03-06 12:35:00,
2013-03-06 07:40:00,37.2,34.3,29.56,ESE,102,0.0,1.0,89,0.00,,,0.00,LWC V2.00 B2112,2013-03-06 12:40:00,
2013-03-06 07:45:00,37.3,34.1,29.56,West,280,0.0,2.0,88,0.00,,,0.00,LWC V2.00 B2112,2013-03-06 12:45:00,
2013-03-06 07:50:00,37.6,34.4,29.57,SE,142,0.0,0.0,88,0.00,,,0.00,LWC V2.00 B2112,2013-03-06 12:50:00,
2013-03-06 07:55:00,37.8,34.6,29.57,SW,235,0.0,1.0,88,0.00,,,0.00,LWC V2.00 B2112,2013-03-06 12:55:00,
2013-03-06 08:00:00,37.9,34.1,29.57,ENE,67,0.0,1.0,86,0.00,,,0.00,LWC V2.00 B2112,2013-03-06 13:00:00,
2013-03-06 08:05:00,38.0,34.5,29.57,NNW,342,0.0,1.0,87,0.00,,,0.00,LWC V2.00 B2112,2013-03-06 13:05:00,
2013-03-06 08:10:00,38.0,33.9,29.57,West,277,0.0,0.0,85,0.00,,,0.00,LWC V2.00 B2112,2013-03-06 13:10:00,
2013-03-06 08:15:00,38.0,33.9,29.57,West,272,0.0,1.0,85,0.00,,,0.00,LWC V2.00 B2112,2013-03-06 13:15:00,
2013-03-06 08:20:00,38.2,33.8,29.57,West,278,0.0,1.0,84,0.00,,,0.00,LWC V2.00 B2112,2013-03-06 13:20:00,
2013-03-06 08:25:00,38.2,33.8,29.57,ENE,69,0.0,5.0,84,0.00,,,0.00,LWC V2.00 B2112,2013-03-06 13:25:00,
2013-03-06 08:30:00,38.3,33.9,29.57,SSW,193,0.0,3.0,84,0.00,,,0.00,LWC V2.00 B2112,2013-03-06 13:30:00,
2013-03-06 08:35:00,38.3,33.0,29.57,SW,225,0.0,0.0,81,0.00,,,0.00,LWC V2.00 B2112,2013-03-06 13:35:00,
2013-03-06 08:40:00,38.3,33.3,29.57,West,276,1.0,3.0,82,0.00,,,0.00,LWC V2.00 B2112,2013-03-06 13:40:00,
2013-03-06 08:45:00,38.3,32.7,29.57,East,88,0.0,4.0,80,0.00,,,0.00,LWC V2.00 B2112,2013-03-06 13:45:00,
2013-03-06 08:50:00,38.3,32.7,29.58,West,264,0.0,2.0,80,0.00,,,0.00,LWC V2.00 B2112,2013-03-06 13:50:00,
2013-03-06 08:55:00,38.3,32.7,29.58,ENE,65,0.0,1.0,80,0.00,,,0.00,LWC V2.00 B2112,2013-03-06 13:55:00,
2013-03-06 09:00:00,38.3,32.4,29.58,West,269,0.0,3.0,79,0.00,,,0.00,LWC V2.00 B2112,2013-03-06 14:00:00,
2013-03-06 09:05:00,38.5,32.6,29.58,SW,219,0.0,1.0,79,0.00,,,0.00,LWC V2.00 B2112,2013-03-06 14:05:00,
2013-03-06 09:10:00,38.8,31.9,29.58,WSW,248,0.0,2.0,76,0.00,,,0.00,LWC V2.00 B2112,2013-03-06 14:10:00,
2013-03-06 09:15:00,38.9,32.0,29.58,WSW,245,0.0,7.0,76,0.00,,,0.00,LWC V2.00 B2112,2013-03-06 14:15:00,
2013-03-06 09:20:00,38.9,31.3,29.58,SW,234,0.0,1.0,74,0.00,,,0.00,LWC V2.00 B2112,2013-03-06 14:20:00,
2013-03-06 09:25:00,38.9,30.7,29.58,WNW,303,1.0,5.0,72,0.00,,,0.00,LWC V2.00 B2112,2013-03-06 14:25:00,
2013-03-06 09:30:00,38.9,31.3,29.58,NNW,338,0.0,1.0,74,0.00,,,0.00,LWC V2.00 B2112,2013-03-06 14:30:00,
2013-03-06 09:35:00,39.2,31.6,29.58,East,94,0.0,1.0,74,0.00,,,0.00,LWC V2.00 B2112,2013-03-06 14:35:00,
2013-03-06 09:40:00,39.5,30.9,29.58,SSE,154,0.0,3.0,71,0.00,,,0.00,LWC V2.00 B2112,2013-03-06 14:40:00,
2013-03-06 09:45:00,39.8,30.5,29.58,West,266,0.0,3.0,69,0.00,,,0.00,LWC V2.00 B2112,2013-03-06 14:45:00,
2013-03-06 09:50:00,40.1,29.7,29.58,WNW,301,2.0,15.0,66,0.00,,,0.00,LWC V2.00 B2112,2013-03-06 14:50:00,
2013-03-06 09:55:00,40.3,29.9,29.58,West,269,0.0,2.0,66,0.00,,,0.00,LWC V2.00 B2112,2013-03-06 14:55:00,
2013-03-06 10:00:00,40.8,31.4,29.58,ESE,108,1.0,2.0,69,0.00,,,0.00,LWC V2.00 B2112,2013-03-06 15:00:00,
2013-03-06 10:05:00,41.2,30.0,29.58,West,273,2.0,4.0,64,0.00,,,0.00,LWC V2.00 B2112,2013-03-06 15:05:00,
2013-03-06 10:10:00,41.6,29.2,29.58,WNW,285,1.0,4.0,61,0.00,,,0.00,LWC V2.00 B2112,2013-03-06 15:10:00,
2013-03-06 10:15:00,41.9,30.6,29.58,East,100,0.0,7.0,64,0.00,,,0.00,LWC V2.00 B2112,2013-03-06 15:15:00,
2013-03-06 10:20:00,41.6,29.6,29.59,West,278,0.0,4.0,62,0.00,,,0.00,LWC V2.00 B2112,2013-03-06 15:20:00,
2013-03-06 10:25:00,41.3,28.9,29.59,West,268,2.0,6.0,61,0.00,,,0.00,LWC V2.00 B2112,2013-03-06 15:25:00,
2013-03-06 10:30:00,41.2,30.0,29.59,SE,142,0.0,1.0,64,0.00,,,0.00,LWC V2.00 B2112,2013-03-06 15:30:00,
2013-03-06 10:35:00,41.3,28.9,29.59,NW,311,0.0,11.0,61,0.00,,,0.00,LWC V2.00 B2112,2013-03-06 15:35:00,
2013-03-06 10:40:00,41.5,30.2,29.59,ENE,67,0.0,11.0,64,0.00,,,0.00,LWC V2.00 B2112,2013-03-06 15:40:00,
2013-03-06 10:45:00,41.5,30.2,29.59,West,274,0.0,1.0,64,0.00,,,0.00,LWC V2.00 B2112,2013-03-06 15:45:00,
2013-03-06 10:50:00,41.5,30.2,29.60,SW,228,1.0,8.0,64,0.00,,,0.00,LWC V2.00 B2112,2013-03-06 15:50:00,
2013-03-06 10:55:00,41.1,29.5,29.60,WNW,282,0.0,1.0,63,0.00,,,0.00,LWC V2.00 B2112,2013-03-06 15:55:00,
2013-03-06 11:00:00,40.9,30.1,29.60,WNW,288,1.0,1.0,65,0.00,,,0.00,LWC V2.00 B2112,2013-03-06 16:00:00,
2013-03-06 11:05:00,41.1,29.9,29.60,WNW,289,0.0,1.0,64,0.00,,,0.00,LWC V2.00 B2112,2013-03-06 16:05:00,
2013-03-06 11:10:00,41.2,30.3,29.60,East,94,2.0,10.0,65,0.00,,,0.00,LWC V2.00 B2112,2013-03-06 16:10:00,
2013-03-06 11:15:00,41.2,30.0,29.60,West,275,2.0,10.0,64,0.00,,,0.00,LWC V2.00 B2112,2013-03-06 16:15:00,
2013-03-06 11:20:00,41.1,30.6,29.60,East,86,3.0,3.0,66,0.00,,,0.00,LWC V2.00 B2112,2013-03-06 16:20:00,
2013-03-06 11:25:00,40.8,29.6,29.60,WNW,287,0.0,2.0,64,0.00,,,0.00,LWC V2.00 B2112,2013-03-06 16:25:00,
2013-03-06 11:30:00,40.6,30.5,29.60,West,272,0.0,11.0,67,0.00,,,0.00,LWC V2.00 B2112,2013-03-06 16:30:00,
2013-03-06 11:35:00,40.2,31.6,29.61,SSE,149,0.0,2.0,71,0.00,,,0.01,LWC V2.00 B2112,2013-03-06 16:35:00,
2013-03-06 11:40:00,39.9,30.9,29.61,South,180,0.0,2.0,70,0.00,,,0.01,LWC V2.00 B2112,2013-03-06 16:40:00,
2013-03-06 11:45:00,39.9,31.6,29.61,West,259,1.0,3.0,72,0.00,,,0.01,LWC V2.00 B2112,2013-03-06 16:45:00,
2013-03-06 11:50:00,40.2,30.1,29.62,NW,315,1.0,7.0,67,0.00,,,0.01,LWC V2.00 B2112,2013-03-06 16:50:00,
2013-03-06 11:55:00,40.5,30.0,29.62,NNW,327,0.0,0.0,66,0.00,,,0.01,LWC V2.00 B2112,2013-03-06 16:55:00,
2013-03-06 12:00:00,40.6,29.4,29.62,West,265,1.0,5.0,64,0.00,,,0.01,LWC V2.00 B2112,2013-03-06 17:00:00,
2013-03-06 12:05:00,40.9,29.7,29.62,West,275,0.0,5.0,64,0.00,,,0.01,LWC V2.00 B2112,2013-03-06 17:05:00,
2013-03-06 12:10:00,41.1,29.5,29.62,West,269,0.0,3.0,63,0.00,,,0.01,LWC V2.00 B2112,2013-03-06 17:10:00,
2013-03-06 12:15:00,41.2,29.6,29.62,ESE,114,0.0,4.0,63,0.00,,,0.01,LWC V2.00 B2112,2013-03-06 17:15:00,
2013-03-06 12:20:00,41.3,28.5,29.61,WNW,289,0.0,2.0,60,0.00,,,0.01,LWC V2.00 B2112,2013-03-06 17:20:00,
2013-03-06 12:25:00,41.5,28.7,29.61,East,80,1.0,3.0,60,0.00,,,0.01,LWC V2.00 B2112,2013-03-06 17:25:00,
2013-03-06 12:30:00,41.6,28.3,29.61,WNW,286,0.0,4.0,59,0.00,,,0.01,LWC V2.00 B2112,2013-03-06 17:30:00,
2013-03-06 12:35:00,41.8,28.5,29.61,ENE,74,1.0,4.0,59,0.00,,,0.01,LWC V2.00 B2112,2013-03-06 17:35:00,
2013-03-06 12:40:00,41.9,29.4,29.61,SW,222,0.0,1.0,61,0.00,,,0.01,LWC V2.00 B2112,2013-03-06 17:40:00,
2013-03-06 12:45:00,42.2,28.9,29.61,SW,225,1.0,4.0,59,0.00,,,0.01,LWC V2.00 B2112,2013-03-06 17:45:00,
2013-03-06 12:50:00,42.5,29.2,29.62,NW,321,0.0,4.0,59,0.00,,,0.01,LWC V2.00 B2112,2013-03-06 17:50:00,
2013-03-06 12:55:00,42.6,29.3,29.62,East,91,0.0,0.0,59,0.00,,,0.01,LWC V2.00 B2112,2013-03-06 17:55:00,
2013-03-06 13:00:00,42.8,29.5,29.62,West,270,2.0,5.0,59,0.00,,,0.01,LWC V2.00 B2112,2013-03-06 18:00:00,
2013-03-06 13:05:00,42.8,29.1,29.62,NE,42,0.0,7.0,58,0.00,,,0.01,LWC V2.00 B2112,2013-03-06 18:05:00,
2013-03-06 13:10:00,42.9,30.0,29.62,WNW,288,1.0,1.0,60,0.00,,,0.01,LWC V2.00 B2112,2013-03-06 18:10:00,
2013-03-06 13:15:00,42.9,28.7,29.62,West,275,0.0,5.0,57,0.00,,,0.01,LWC V2.00 B2112,2013-03-06 18:15:00,
2013-03-06 13:20:00,43.1,29.8,29.62,SSW,199,1.0,2.0,59,0.00,,,0.01,LWC V2.00 B2112,2013-03-06 18:20:00,
2013-03-06 13:25:00,43.1,29.3,29.62,West,265,0.0,6.0,58,0.00,,,0.01,LWC V2.00 B2112,2013-03-06 18:25:00,
2013-03-06 13:30:00,43.2,30.7,29.62,WNW,290,0.0,3.0,61,0.00,,,0.01,LWC V2.00 B2112,2013-03-06 18:30:00,
2013-03-06 13:35:00,43.1,30.2,29.63,NW,323,0.0,0.0,60,0.00,,,0.01,LWC V2.00 B2112,2013-03-06 18:35:00,
2013-03-06 13:40:00,42.9,30.8,29.63,West,277,0.0,7.0,62,0.00,,,0.01,LWC V2.00 B2112,2013-03-06 18:40:00,
2013-03-06 13:45:00,42.8,31.9,29.63,West,269,0.0,0.0,65,0.00,,,0.01,LWC V2.00 B2112,2013-03-06 18:45:00,
2013-03-06 13:50:00,42.8,31.5,29.64,SW,234,1.0,7.0,64,0.00,,,0.01,LWC V2.00 B2112,2013-03-06 18:50:00,
2013-03-06 13:55:00,42.8,31.9,29.64,WSW,256,0.0,4.0,65,0.00,,,0.01,LWC V2.00 B2112,2013-03-06 18:55:00,
2013-03-06 14:00:00,42.6,31.3,29.64,WSW,258,0.0,7.0,64,0.00,,,0.01,LWC V2.00 B2112,2013-03-06 19:00:00,
2013-03-06 14:05:00,42.8,32.6,29.65,West,271,0.0,3.0,67,0.00,,,0.01,LWC V2.00 B2112,2013-03-06 19:05:00,
2013-03-06 14:10:00,42.9,32.0,29.65,West,275,0.0,4.0,65,0.00,,,0.01,LWC V2.00 B2112,2013-03-06 19:10:00,
2013-03-06 14:15:00,43.2,32.6,29.65,ESE,105,0.0,6.0,66,0.00,,,0.01,LWC V2.00 B2112,2013-03-06 19:15:00,
2013-03-06 14:20:00,43.3,32.7,29.65,East,88,0.0,6.0,66,0.00,,,0.01,LWC V2.00 B2112,2013-03-06 19:20:00,
2013-03-06 14:25:00,43.3,31.6,29.65,West,276,0.0,1.0,63,0.00,,,0.01,LWC V2.00 B2112,2013-03-06 19:25:00,
2013-03-06 14:30:00,43.5,32.1,29.65,WNW,291,0.0,3.0,64,0.00,,,0.01,LWC V2.00 B2112,2013-03-06 19:30:00,
2013-03-06 14:35:00,43.8,32.4,29.65,WNW,284,0.0,0.0,64,0.00,,,0.01,LWC V2.00 B2112,2013-03-06 19:35:00,
2013-03-06 14:40:00,44.1,32.3,29.65,North,0,0.0,0.0,63,0.00,,,0.01,LWC V2.00 B2112,2013-03-06 19:40:00,
2013-03-06 14:45:00,44.3,32.1,29.65,West,263,0.0,3.0,62,0.00,,,0.01,LWC V2.00 B2112,2013-03-06 19:45:00,
2013-03-06 14:50:00,44.8,33.0,29.66,WSW,238,4.0,5.0,63,0.00,,,0.01,LWC V2.00 B2112,2013-03-06 19:50:00,
2013-03-06 14:55:00,45.1,32.5,29.66,WSW,251,0.0,2.0,61,0.00,,,0.01,LWC V2.00 B2112,2013-03-06 19:55:00,
2013-03-06 15:00:00,45.2,32.6,29.66,ENE,71,3.0,3.0,61,0.00,,,0.01,LWC V2.00 B2112,2013-03-06 20:00:00,
2013-03-06 15:05:00,45.2,32.6,29.67,West,272,0.0,14.0,61,0.00,,,0.01,LWC V2.00 B2112,2013-03-06 20:05:00,
2013-03-06 15:10:00,45.2,32.1,29.67,WSW,242,0.0,2.0,60,0.00,,,0.01,LWC V2.00 B2112,2013-03-06 20:10:00,
2013-03-06 15:15:00,45.2,33.0,29.67,NE,34,0.0,0.0,62,0.00,,,0.01,LWC V2.00 B2112,2013-03-06 20:15:00,
2013-03-06 15:20:00,45.1,32.5,29.68,SSE,163,0.0,17.0,61,0.00,,,0.01,LWC V2.00 B2112,2013-03-06 20:20:00,
2013-03-06 15:25:00,45.1,32.9,29.68,WSW,247,0.0,0.0,62,0.00,,,0.01,LWC V2.00 B2112,2013-03-06 20:25:00,
2013-03-06 15:30:00,45.2,33.0,29.68,West,269,1.0,5.0,62,0.00,,,0.01,LWC V2.00 B2112,2013-03-06 20:30:00,
2013-03-06 15:35:00,45.2,32.6,29.70,East,95,4.0,5.0,61,0.00,,,0.01,LWC V2.00 B2112,2013-03-06 20:35:00,
2013-03-06 15:40:00,45.2,32.6,29.70,ENE,57,0.0,2.0,61,0.00,,,0.01,LWC V2.00 B2112,2013-03-06 20:40:00,
2013-03-06 15:45:00,45.1,32.5,29.70,ENE,63,1.0,5.0,61,0.00,,,0.01,LWC V2.00 B2112,2013-03-06 20:45:00,
2013-03-06 15:50:00,44.9,32.7,29.71,WNW,297,0.0,12.0,62,0.00,,,0.01,LWC V2.00 B2112,2013-03-06 20:50:00,
2013-03-06 15:55:00,44.9,32.3,29.71,West,266,0.0,10.0,61,0.00,,,0.01,LWC V2.00 B2112,2013-03-06 20:55:00,
2013-03-06 16:00:00,44.9,33.1,29.71,SSE,166,0.0,3.0,63,0.00,,,0.01,LWC V2.00 B2112,2013-03-06 21:00:00,
2013-03-06 16:05:00,44.9,32.7,29.72,SE,128,1.0,2.0,62,0.00,,,0.01,LWC V2.00 B2112,2013-03-06 21:05:00,
2013-03-06 16:10:00,44.9,33.1,29.72,West,265,7.0,7.0,63,0.00,,,0.01,LWC V2.00 B2112,2013-03-06 21:10:00,
2013-03-06 16:15:00,44.9,32.7,29.72,SE,146,0.0,1.0,62,0.00,,,0.01,LWC V2.00 B2112,2013-03-06 21:15:00,
2013-03-06 16:20:00,45.1,32.5,29.73,East,86,1.0,3.0,61,0.00,,,0.01,LWC V2.00 B2112,2013-03-06 21:20:00,
2013-03-06 16:25:00,45.2,33.4,29.73,WSW,253,1.0,6.0,63,0.00,,,0.01,LWC V2.00 B2112,2013-03-06 21:25:00,
2013-03-06 16:30:00,45.2,33.0,29.73,West,265,0.0,2.0,62,0.00,,,0.01,LWC V2.00 B2112,2013-03-06 21:30:00,
2013-03-06 16:35:00,45.2,33.4,29.75,ESE,105,0.0,1.0,63,0.00,,,0.01,LWC V2.00 B2112,2013-03-06 21:35:00,
2013-03-06 16:40:00,45.1,33.7,29.75,SSE,157,0.0,5.0,64,0.00,,,0.01,LWC V2.00 B2112,2013-03-06 21:40:00,
2013-03-06 16:45:00,44.9,33.9,29.75,SSW,207,0.0,6.0,65,0.00,,,0.01,LWC V2.00 B2112,2013-03-06 21:45:00,
2013-03-06 16:50:00,44.8,33.8,29.77,WSW,257,0.0,10.0,65,0.00,,,0.01,LWC V2.00 B2112,2013-03-06 21:50:00,
2013-03-06 16:55:00,44.6,34.0,29.77,ENE,78,0.0,1.0,66,0.00,,,0.01,LWC V2.00 B2112,2013-03-06 21:55:00,
2013-03-06 17:00:00,44.5,34.2,29.77,ENE,76,0.0,1.0,67,0.00,,,0.01,LWC V2.00 B2112,2013-03-06 22:00:00,
2013-03-06 17:05:00,44.3,34.4,29.77,WSW,252,0.0,2.0,68,0.00,,,0.01,LWC V2.00 B2112,2013-03-06 22:05:00,
2013-03-06 17:10:00,44.2,34.7,29.77,WSW,254,0.0,6.0,69,0.00,,,0.01,LWC V2.00 B2112,2013-03-06 22:10:00,
2013-03-06 17:15:00,43.9,34.4,29.77,WSW,258,0.0,1.0,69,0.00,,,0.01,LWC V2.00 B2112,2013-03-06 22:15:00,
2013-03-06 17:20:00,43.9,34.8,29.79,NNW,333,0.0,0.0,70,0.00,,,0.01,LWC V2.00 B2112,2013-03-06 22:20:00,
2013-03-06 17:25:00,43.8,34.7,29.79,ENE,75,9.0,9.0,70,0.00,,,0.01,LWC V2.00 B2112,2013-03-06 22:25:00,
2013-03-06 17:30:00,43.8,34.7,29.79,West,270,0.0,2.0,70,0.00,,,0.01,LWC V2.00 B2112,2013-03-06 22:30:00,
2013-03-06 17:35:00,43.5,34.7,29.81,ESE,123,2.0,4.0,71,0.00,,,0.01,LWC V2.00 B2112,2013-03-06 22:35:00,
2013-03-06 17:40:00,43.3,34.9,29.81,NW,324,0.0,5.0,72,0.00,,,0.01,LWC V2.00 B2112,2013-03-06 22:40:00,
2013-03-06 17:45:00,43.2,35.5,29.81,NNW,344,0.0,9.0,74,0.00,,,0.01,LWC V2.00 B2112,2013-03-06 22:45:00,
2013-03-06 17:50:00,43.1,35.7,29.82,ESE,109,0.0,2.0,75,0.00,,,0.01,LWC V2.00 B2112,2013-03-06 22:50:00,
2013-03-06 17:55:00,42.8,36.1,29.82,WSW,243,0.0,1.0,77,0.00,,,0.01,LWC V2.00 B2112,2013-03-06 22:55:00,
2013-03-06 18:00:00,42.6,35.9,29.82,SW,219,0.0,5.0,77,0.00,,,0.01,LWC V2.00 B2112,2013-03-06 23:00:00,
2013-03-06 18:05:00,42.3,36.3,29.84,WSW,244,0.0,3.0,79,0.00,,,0.01,LWC V2.00 B2112,2013-03-06 23:05:00,
2013-03-06 18:10:00,42.2,36.5,29.84,West,259,0.0,2.0,80,0.00,,,0.01,LWC V2.00 B2112,2013-03-06 23:10:00,
2013-03-06 18:15:00,42.1,36.4,29.84,NNW,327,0.0,0.0,80,0.00,,,0.01,LWC V2.00 B2112,2013-03-06 23:15:00,
2013-03-06 18:20:00,41.9,36.5,29.85,ENE,67,0.0,0.0,81,0.00,,,0.01,LWC V2.00 B2112,2013-03-06 23:20:00,
2013-03-06 18:25:00,41.9,36.5,29.85,West,273,0.0,1.0,81,0.00,,,0.01,LWC V2.00 B2112,2013-03-06 23:25:00,
2013-03-06 18:30:00,41.9,36.5,29.85,West,276,0.0,0.0,81,0.00,,,0.01,LWC V2.00 B2112,2013-03-06 23:30:00,
2013-03-06 18:35:00,41.9,36.2,29.86,West,267,0.0,0.0,80,0.00,,,0.01,LWC V2.00 B2112,2013-03-06 23:35:00,
2013-03-06 18:40:00,41.9,36.2,29.86,WSW,244,0.0,0.0,80,0.00,,,0.01,LWC V2.00 B2112,2013-03-06 23:40:00,
2013-03-06 18:45:00,41.9,35.9,29.86,East,92,0.0,0.0,79,0.00,,,0.01,LWC V2.00 B2112,2013-03-06 23:45:00,
2013-03-06 18:50:00,42.1,36.1,29.87,North,355,0.0,0.0,79,0.00,,,0.01,LWC V2.00 B2112,2013-03-06 23:50:00,
2013-03-06 18:55:00,42.1,36.1,29.87,North,351,0.0,0.0,79,0.00,,,0.01,LWC V2.00 B2112,2013-03-06 23:55:00,
2013-03-06 19:00:00,42.2,36.2,29.87,North,351,0.0,0.0,79,0.00,,,0.01,LWC V2.00 B2112,2013-03-07 00:00:00,
2013-03-06 19:05:00,42.2,36.2,29.88,North,351,0.0,1.0,79,0.00,,,0.01,LWC V2.00 B2112,2013-03-07 00:05:00,
2013-03-06 19:10:00,42.2,36.5,29.88,North,351,0.0,0.0,80,0.00,,,0.01,LWC V2.00 B2112,2013-03-07 00:10:00,
2013-03-06 19:15:00,42.1,36.4,29.88,NNW,334,0.0,1.0,80,0.00,,,0.01,LWC V2.00 B2112,2013-03-07 00:15:00,
2013-03-06 19:20:00,42.1,36.1,29.89,ENE,59,0.0,3.0,79,0.00,,,0.01,LWC V2.00 B2112,2013-03-07 00:20:00,
2013-03-06 19:25:00,42.1,36.1,29.89,ENE,59,0.0,0.0,79,0.00,,,0.01,LWC V2.00 B2112,2013-03-07 00:25:00,
2013-03-06 19:30:00,42.1,35.4,29.89,SW,224,0.0,0.0,77,0.00,,,0.01,LWC V2.00 B2112,2013-03-07 00:30:00,
2013-03-06 19:35:00,42.2,35.5,29.90,NE,36,0.0,2.0,77,0.00,,,0.01,LWC V2.00 B2112,2013-03-07 00:35:00,
2013-03-06 19:40:00,42.2,35.5,29.90,NNW,339,0.0,0.0,77,0.00,,,0.01,LWC V2.00 B2112,2013-03-07 00:40:00,
2013-03-06 19:45:00,42.2,34.9,29.90,West,262,0.0,2.0,75,0.00,,,0.01,LWC V2.00 B2112,2013-03-07 00:45:00,
2013-03-06 19:50:00,42.3,34.6,29.91,West,276,0.0,5.0,74,0.00,,,0.01,LWC V2.00 B2112,2013-03-07 00:50:00,
2013-03-06 19:55:00,42.6,33.9,29.91,SE,144,0.0,1.0,71,0.00,,,0.01,LWC V2.00 B2112,2013-03-07 00:55:00,
2013-03-06 20:00:00,42.8,33.7,29.91,ESE,105,0.0,0.0,70,0.00,,,0.01,LWC V2.00 B2112,2013-03-07 01:00:00,
2013-03-06 20:05:00,42.8,33.3,29.92,NNW,327,0.0,0.0,69,0.00,,,0.01,LWC V2.00 B2112,2013-03-07 01:05:00,
2013-03-06 20:10:00,42.8,33.0,29.92,NNE,25,0.0,0.0,68,0.00,,,0.01,LWC V2.00 B2112,2013-03-07 01:10:00,
2013-03-06 20:15:00,42.8,33.0,29.92,ENE,68,0.0,1.0,68,0.00,,,0.01,LWC V2.00 B2112,2013-03-07 01:15:00,
2013-03-06 20:20:00,42.8,31.9,29.93,NNE,14,0.0,2.0,65,0.00,,,0.01,LWC V2.00 B2112,2013-03-07 01:20:00,
2013-03-06 20:25:00,42.8,32.6,29.93,SW,223,1.0,1.0,67,0.00,,,0.01,LWC V2.00 B2112,2013-03-07 01:25:00,
2013-03-06 20:30:00,42.8,31.5,29.93,NW,319,0.0,1.0,64,0.00,,,0.01,LWC V2.00 B2112,2013-03-07 01:30:00,
2013-03-06 20:35:00,42.8,31.5,29.93,NW,309,0.0,1.0,64,0.00,,,0.01,LWC V2.00 B2112,2013-03-07 01:35:00,
2013-03-06 20:40:00,42.8,31.1,29.93,NNW,329,0.0,1.0,63,0.00,,,0.01,LWC V2.00 B2112,2013-03-07 01:40:00,
2013-03-06 20:45:00,42.8,31.1,29.93,NE,51,0.0,1.0,63,0.00,,,0.01,LWC V2.00 B2112,2013-03-07 01:45:00,
2013-03-06 20:50:00,42.8,31.1,29.94,East,82,1.0,1.0,63,0.00,,,0.01,LWC V2.00 B2112,2013-03-07 01:50:00,
2013-03-06 20:55:00,42.8,30.7,29.94,NW,310,0.0,2.0,62,0.00,,,0.01,LWC V2.00 B2112,2013-03-07 01:55:00,
2013-03-06 21:00:00,42.6,31.3,29.94,WSW,240,0.0,2.0,64,0.00,,,0.01,LWC V2.00 B2112,2013-03-07 02:00:00,
2013-03-06 21:05:00,42.5,31.6,29.94,West,265,0.0,1.0,65,0.00,,,0.01,LWC V2.00 B2112,2013-03-07 02:05:00,
2013-03-06 21:10:00,42.6,31.3,29.94,NNE,15,0.0,0.0,64,0.00,,,0.01,LWC V2.00 B2112,2013-03-07 02:10:00,
2013-03-06 21:15:00,42.6,30.9,29.94,SE,145,0.0,2.0,63,0.00,,,0.01,LWC V2.00 B2112,2013-03-07 02:15:00,
2013-03-06 21:20:00,42.6,31.3,29.94,WSW,240,0.0,0.0,64,0.00,,,0.01,LWC V2.00 B2112,2013-03-07 02:20:00,
2013-03-06 21:25:00,42.6,30.5,29.94,SW,233,0.0,0.0,62,0.00,,,0.01,LWC V2.00 B2112,2013-03-07 02:25:00,
2013-03-06 21:30:00,42.6,30.9,29.94,ENE,71,0.0,3.0,63,0.00,,,0.01,LWC V2.00 B2112,2013-03-07 02:30:00,
2013-03-06 21:35:00,42.6,30.1,29.94,NNW,336,0.0,1.0,61,0.00,,,0.01,LWC V2.00 B2112,2013-03-07 02:35:00,
2013-03-06 21:40:00,42.5,30.8,29.94,West,263,0.0,1.0,63,0.00,,,0.01,LWC V2.00 B2112,2013-03-07 02:40:00,
2013-03-06 21:45:00,42.5,30.8,29.94,NW,313,0.0,0.0,63,0.00,,,0.01,LWC V2.00 B2112,2013-03-07 02:45:00,
2013-03-06 21:50:00,42.2,30.9,29.95,NNE,26,0.0,0.0,64,0.00,,,0.01,LWC V2.00 B2112,2013-03-07 02:50:00,
2013-03-06 21:55:00,42.1,30.4,29.95,North,0,0.0,0.0,63,0.00,,,0.01,LWC V2.00 B2112,2013-03-07 02:55:00,
2013-03-06 22:00:00,41.8,30.9,29.95,NE,50,0.0,0.0,65,0.00,,,0.01,LWC V2.00 B2112,2013-03-07 03:00:00,
2013-03-06 22:05:00,41.5,30.6,29.95,NNE,26,0.0,0.0,65,0.00,,,0.01,LWC V2.00 B2112,2013-03-07 03:05:00,
2013-03-06 22:10:00,41.2,30.7,29.95,NNE,26,0.0,0.0,66,0.00,,,0.01,LWC V2.00 B2112,2013-03-07 03:10:00,
2013-03-06 22:15:00,40.9,30.8,29.95,NNE,28,0.0,0.0,67,0.00,,,0.01,LWC V2.00 B2112,2013-03-07 03:15:00,
2013-03-06 22:20:00,40.6,30.9,29.96,NNE,28,0.0,0.0,68,0.00,,,0.01,LWC V2.00 B2112,2013-03-07 03:20:00,
2013-03-06 22:25:00,40.3,31.0,29.96,NNE,28,0.0,0.0,69,0.00,,,0.01,LWC V2.00 B2112,2013-03-07 03:25:00,
2013-03-06 22:30:00,40.1,31.1,29.96,NNE,28,0.0,0.0,70,0.00,,,0.01,LWC V2.00 B2112,2013-03-07 03:30:00,
2013-03-06 22:35:00,39.9,30.9,29.96,ENE,74,0.0,0.0,70,0.00,,,0.01,LWC V2.00 B2112,2013-03-07 03:35:00,
2013-03-06 22:40:00,39.6,30.6,29.96,ENE,74,0.0,0.0,70,0.00,,,0.01,LWC V2.00 B2112,2013-03-07 03:40:00,
2013-03-06 22:45:00,39.5,30.9,29.96,NNE,15,0.0,0.0,71,0.00,,,0.01,LWC V2.00 B2112,2013-03-07 03:45:00,
2013-03-06 22:50:00,39.3,30.3,29.96,NNE,19,0.0,0.0,70,0.00,,,0.01,LWC V2.00 B2112,2013-03-07 03:50:00,
2013-03-06 22:55:00,39.2,30.6,29.96,NNE,19,0.0,0.0,71,0.00,,,0.01,LWC V2.00 B2112,2013-03-07 03:55:00,
2013-03-06 23:00:00,38.9,30.7,29.96,NNE,19,0.0,0.0,72,0.00,,,0.01,LWC V2.00 B2112,2013-03-07 04:00:00,
2013-03-06 23:05:00,38.8,30.6,29.96,NNE,19,0.0,0.0,72,0.00,,,0.01,LWC V2.00 B2112,2013-03-07 04:05:00,
2013-03-06 23:10:00,38.5,29.9,29.96,NNE,18,0.0,0.0,71,0.00,,,0.01,LWC V2.00 B2112,2013-03-07 04:10:00,
2013-03-06 23:15:00,38.5,30.3,29.96,NNE,18,0.0,0.0,72,0.00,,,0.01,LWC V2.00 B2112,2013-03-07 04:15:00,
2013-03-06 23:20:00,38.2,30.0,29.96,NNE,18,0.0,0.0,72,0.00,,,0.01,LWC V2.00 B2112,2013-03-07 04:20:00,
2013-03-06 23:25:00,38.0,29.8,29.96,NNE,18,0.0,0.0,72,0.00,,,0.01,LWC V2.00 B2112,2013-03-07 04:25:00,
2013-03-06 23:30:00,37.9,30.0,29.96,NE,53,0.0,0.0,73,0.00,,,0.01,LWC V2.00 B2112,2013-03-07 04:30:00,
2013-03-06 23:35:00,37.9,30.0,29.96,NNE,33,0.0,0.0,73,0.00,,,0.01,LWC V2.00 B2112,2013-03-07 04:35:00,
2013-03-06 23:40:00,37.8,30.3,29.96,NNE,33,0.0,0.0,74,0.00,,,0.01,LWC V2.00 B2112,2013-03-07 04:40:00,
2013-03-06 23:45:00,37.6,30.1,29.96,NNE,33,0.0,0.0,74,0.00,,,0.01,LWC V2.00 B2112,2013-03-07 04:45:00,
2013-03-06 23:50:00,37.5,29.6,29.96,NNE,33,0.0,0.0,73,0.00,,,0.01,LWC V2.00 B2112,2013-03-07 04:50:00,
2013-03-06 23:54:00,37.5,30.0,29.96,NNE,33,0.0,0.0,74,0.00,,,0.01,LWC V2.00 B2112,2013-03-07 04:54:00,
2013-03-06 23:59:00,37.3,29.8,29.96,NNE,33,0.0,0.0,74,0.00,,,0.01,LWC V2.00 B2112,2013-03-07 04:59:00,